sensor_id;sensor_type;location;lat;lon;timestamp;P1;durP1;ratioP1;P2;durP2;ratioP2
12308;SDS011;6217;48.150;17.142;2023-11-21T00:00:04;1.80;;;0.60;;
12308;SDS011;6217;48.150;17.142;2023-11-21T00:04:18;1.40;;;0.70;;
12308;SDS011;6217;48.150;17.142;2023-11-21T00:08:24;3.03;;;0.88;;
12308;SDS011;6217;48.150;17.142;2023-11-21T00:12:30;7.63;;;1.00;;
12308;SDS011;6217;48.150;17.142;2023-11-21T00:16:36;4.88;;;0.65;;
12308;SDS011;6217;48.150;17.142;2023-11-21T00:20:42;2.17;;;0.50;;
12308;SDS011;6217;48.150;17.142;2023-11-21T00:24:49;3.63;;;0.80;;
12308;SDS011;6217;48.150;17.142;2023-11-21T00:28:55;1.80;;;0.70;;
12308;SDS011;6217;48.150;17.142;2023-11-21T00:33:01;1.33;;;0.70;;
12308;SDS011;6217;48.150;17.142;2023-11-21T00:37:07;1.75;;;1.10;;
12308;SDS011;6217;48.150;17.142;2023-11-21T00:41:14;1.15;;;0.93;;
12308;SDS011;6217;48.150;17.142;2023-11-21T00:45:20;4.38;;;1.67;;
12308;SDS011;6217;48.150;17.142;2023-11-21T00:49:26;5.40;;;1.40;;
12308;SDS011;6217;48.150;17.142;2023-11-21T00:53:33;4.25;;;0.90;;
12308;SDS011;6217;48.150;17.142;2023-11-21T00:57:39;1.73;;;0.70;;
12308;SDS011;6217;48.150;17.142;2023-11-21T01:01:45;2.10;;;0.90;;
12308;SDS011;6217;48.150;17.142;2023-11-21T01:05:52;3.50;;;1.15;;
12308;SDS011;6217;48.150;17.142;2023-11-21T01:09:58;5.80;;;1.27;;
12308;SDS011;6217;48.150;17.142;2023-11-21T01:14:04;3.20;;;0.80;;
12308;SDS011;6217;48.150;17.142;2023-11-21T01:18:11;4.55;;;0.90;;
12308;SDS011;6217;48.150;17.142;2023-11-21T01:22:18;2.97;;;0.75;;
12308;SDS011;6217;48.150;17.142;2023-11-21T01:26:30;2.25;;;1.75;;
12308;SDS011;6217;48.150;17.142;2023-11-21T01:30:36;3.13;;;0.80;;
12308;SDS011;6217;48.150;17.142;2023-11-21T01:34:42;3.38;;;0.90;;
12308;SDS011;6217;48.150;17.142;2023-11-21T01:38:49;2.88;;;0.82;;
12308;SDS011;6217;48.150;17.142;2023-11-21T01:42:55;3.20;;;0.88;;
12308;SDS011;6217;48.150;17.142;2023-11-21T01:47:02;5.88;;;1.60;;
12308;SDS011;6217;48.150;17.142;2023-11-21T01:51:10;1.05;;;0.80;;
12308;SDS011;6217;48.150;17.142;2023-11-21T01:55:16;5.82;;;0.98;;
12308;SDS011;6217;48.150;17.142;2023-11-21T01:59:23;4.55;;;1.10;;
12308;SDS011;6217;48.150;17.142;2023-11-21T02:03:31;7.70;;;1.30;;
12308;SDS011;6217;48.150;17.142;2023-11-21T02:07:38;2.47;;;0.90;;
12308;SDS011;6217;48.150;17.142;2023-11-21T02:11:47;4.90;;;1.10;;
12308;SDS011;6217;48.150;17.142;2023-11-21T02:15:54;3.42;;;1.52;;
12308;SDS011;6217;48.150;17.142;2023-11-21T02:20:01;4.38;;;1.00;;
12308;SDS011;6217;48.150;17.142;2023-11-21T02:24:08;1.35;;;0.80;;
12308;SDS011;6217;48.150;17.142;2023-11-21T02:28:15;4.63;;;0.80;;
12308;SDS011;6217;48.150;17.142;2023-11-21T02:32:31;1.65;;;0.70;;
12308;SDS011;6217;48.150;17.142;2023-11-21T02:36:37;1.42;;;1.27;;
12308;SDS011;6217;48.150;17.142;2023-11-21T02:40:44;2.58;;;0.68;;
12308;SDS011;6217;48.150;17.142;2023-11-21T02:44:50;2.05;;;0.75;;
12308;SDS011;6217;48.150;17.142;2023-11-21T02:48:56;4.05;;;1.85;;
12308;SDS011;6217;48.150;17.142;2023-11-21T02:53:03;4.85;;;1.10;;
12308;SDS011;6217;48.150;17.142;2023-11-21T02:57:11;4.30;;;1.20;;
12308;SDS011;6217;48.150;17.142;2023-11-21T03:01:17;4.07;;;1.70;;
12308;SDS011;6217;48.150;17.142;2023-11-21T03:05:23;3.45;;;1.35;;
12308;SDS011;6217;48.150;17.142;2023-11-21T03:09:28;2.95;;;1.17;;
12308;SDS011;6217;48.150;17.142;2023-11-21T03:13:34;6.00;;;1.10;;
12308;SDS011;6217;48.150;17.142;2023-11-21T03:17:40;4.13;;;1.25;;
12308;SDS011;6217;48.150;17.142;2023-11-21T03:21:47;3.83;;;0.98;;
12308;SDS011;6217;48.150;17.142;2023-11-21T03:25:53;3.58;;;0.93;;
12308;SDS011;6217;48.150;17.142;2023-11-21T03:29:59;2.53;;;1.00;;
12308;SDS011;6217;48.150;17.142;2023-11-21T03:34:05;3.25;;;1.05;;
12308;SDS011;6217;48.150;17.142;2023-11-21T03:38:12;4.70;;;2.58;;
12308;SDS011;6217;48.150;17.142;2023-11-21T03:42:18;5.93;;;1.55;;
12308;SDS011;6217;48.150;17.142;2023-11-21T03:46:24;2.92;;;0.80;;
12308;SDS011;6217;48.150;17.142;2023-11-21T03:50:30;4.72;;;1.20;;
12308;SDS011;6217;48.150;17.142;2023-11-21T03:54:36;4.03;;;1.10;;
12308;SDS011;6217;48.150;17.142;2023-11-21T03:58:42;3.60;;;1.00;;
12308;SDS011;6217;48.150;17.142;2023-11-21T04:02:48;2.13;;;0.98;;
12308;SDS011;6217;48.150;17.142;2023-11-21T04:06:56;3.67;;;0.80;;
12308;SDS011;6217;48.150;17.142;2023-11-21T04:11:02;2.85;;;1.48;;
12308;SDS011;6217;48.150;17.142;2023-11-21T04:15:09;4.03;;;0.90;;
12308;SDS011;6217;48.150;17.142;2023-11-21T04:19:16;2.28;;;1.40;;
12308;SDS011;6217;48.150;17.142;2023-11-21T04:23:22;3.33;;;1.35;;
12308;SDS011;6217;48.150;17.142;2023-11-21T04:27:28;5.18;;;1.20;;
12308;SDS011;6217;48.150;17.142;2023-11-21T04:31:34;3.85;;;1.30;;
12308;SDS011;6217;48.150;17.142;2023-11-21T04:35:39;2.20;;;1.10;;
12308;SDS011;6217;48.150;17.142;2023-11-21T04:39:45;4.38;;;0.90;;
12308;SDS011;6217;48.150;17.142;2023-11-21T04:43:51;1.98;;;0.90;;
12308;SDS011;6217;48.150;17.142;2023-11-21T04:47:57;1.35;;;0.98;;
12308;SDS011;6217;48.150;17.142;2023-11-21T04:52:03;2.20;;;1.00;;
12308;SDS011;6217;48.150;17.142;2023-11-21T04:56:10;2.38;;;1.10;;
12308;SDS011;6217;48.150;17.142;2023-11-21T05:00:16;6.68;;;1.25;;
12308;SDS011;6217;48.150;17.142;2023-11-21T05:04:22;1.67;;;1.27;;
12308;SDS011;6217;48.150;17.142;2023-11-21T05:08:28;3.33;;;1.92;;
12308;SDS011;6217;48.150;17.142;2023-11-21T05:12:34;4.80;;;1.98;;
12308;SDS011;6217;48.150;17.142;2023-11-21T05:16:45;6.18;;;1.60;;
12308;SDS011;6217;48.150;17.142;2023-11-21T05:20:51;1.98;;;1.20;;
12308;SDS011;6217;48.150;17.142;2023-11-21T05:24:58;2.67;;;1.05;;
12308;SDS011;6217;48.150;17.142;2023-11-21T05:29:04;3.55;;;1.63;;
12308;SDS011;6217;48.150;17.142;2023-11-21T05:33:10;3.63;;;1.48;;
12308;SDS011;6217;48.150;17.142;2023-11-21T05:37:16;4.28;;;1.15;;
12308;SDS011;6217;48.150;17.142;2023-11-21T05:41:22;3.30;;;1.42;;
12308;SDS011;6217;48.150;17.142;2023-11-21T05:45:29;3.08;;;1.20;;
12308;SDS011;6217;48.150;17.142;2023-11-21T05:49:35;5.72;;;1.10;;
12308;SDS011;6217;48.150;17.142;2023-11-21T05:53:42;3.45;;;1.20;;
12308;SDS011;6217;48.150;17.142;2023-11-21T05:57:48;1.92;;;1.02;;
12308;SDS011;6217;48.150;17.142;2023-11-21T06:01:54;4.75;;;1.05;;
12308;SDS011;6217;48.150;17.142;2023-11-21T06:06:00;5.78;;;1.05;;
12308;SDS011;6217;48.150;17.142;2023-11-21T06:10:07;4.28;;;1.38;;
12308;SDS011;6217;48.150;17.142;2023-11-21T06:14:15;4.78;;;1.58;;
12308;SDS011;6217;48.150;17.142;2023-11-21T06:18:23;3.03;;;1.75;;
12308;SDS011;6217;48.150;17.142;2023-11-21T06:22:29;4.72;;;1.48;;
12308;SDS011;6217;48.150;17.142;2023-11-21T06:26:35;2.33;;;1.50;;
12308;SDS011;6217;48.150;17.142;2023-11-21T06:30:41;4.15;;;1.95;;
12308;SDS011;6217;48.150;17.142;2023-11-21T06:34:47;3.90;;;1.48;;
12308;SDS011;6217;48.150;17.142;2023-11-21T06:38:54;4.93;;;1.45;;
12308;SDS011;6217;48.150;17.142;2023-11-21T06:43:00;5.35;;;1.60;;
12308;SDS011;6217;48.150;17.142;2023-11-21T06:47:06;7.57;;;1.52;;
12308;SDS011;6217;48.150;17.142;2023-11-21T06:51:12;5.15;;;1.63;;
12308;SDS011;6217;48.150;17.142;2023-11-21T06:55:18;2.92;;;1.75;;
12308;SDS011;6217;48.150;17.142;2023-11-21T06:59:24;4.40;;;1.50;;
12308;SDS011;6217;48.150;17.142;2023-11-21T07:03:30;4.93;;;1.80;;
12308;SDS011;6217;48.150;17.142;2023-11-21T07:07:37;5.82;;;1.73;;
12308;SDS011;6217;48.150;17.142;2023-11-21T07:11:43;5.90;;;1.75;;
12308;SDS011;6217;48.150;17.142;2023-11-21T07:15:49;9.20;;;1.55;;
12308;SDS011;6217;48.150;17.142;2023-11-21T07:19:55;8.40;;;1.70;;
12308;SDS011;6217;48.150;17.142;2023-11-21T07:24:05;5.50;;;1.70;;
12308;SDS011;6217;48.150;17.142;2023-11-21T07:28:12;3.27;;;1.50;;
12308;SDS011;6217;48.150;17.142;2023-11-21T07:32:18;6.28;;;1.33;;
12308;SDS011;6217;48.150;17.142;2023-11-21T07:36:24;6.20;;;1.48;;
12308;SDS011;6217;48.150;17.142;2023-11-21T07:40:30;8.20;;;1.90;;
12308;SDS011;6217;48.150;17.142;2023-11-21T07:44:36;9.23;;;1.92;;
12308;SDS011;6217;48.150;17.142;2023-11-21T07:48:42;5.00;;;1.73;;
12308;SDS011;6217;48.150;17.142;2023-11-21T07:52:49;5.28;;;1.30;;
12308;SDS011;6217;48.150;17.142;2023-11-21T07:56:54;8.52;;;2.75;;
12308;SDS011;6217;48.150;17.142;2023-11-21T08:01:01;11.15;;;4.55;;
12308;SDS011;6217;48.150;17.142;2023-11-21T08:05:10;8.63;;;2.30;;
12308;SDS011;6217;48.150;17.142;2023-11-21T08:09:17;5.93;;;2.80;;
12308;SDS011;6217;48.150;17.142;2023-11-21T08:13:26;6.43;;;1.92;;
12308;SDS011;6217;48.150;17.142;2023-11-21T08:17:35;2.97;;;1.58;;
12308;SDS011;6217;48.150;17.142;2023-11-21T08:21:41;6.90;;;1.55;;
12308;SDS011;6217;48.150;17.142;2023-11-21T08:25:47;5.97;;;1.88;;
12308;SDS011;6217;48.150;17.142;2023-11-21T08:29:53;4.57;;;2.22;;
12308;SDS011;6217;48.150;17.142;2023-11-21T08:34:00;2.95;;;1.60;;
12308;SDS011;6217;48.150;17.142;2023-11-21T08:38:08;7.22;;;2.22;;
12308;SDS011;6217;48.150;17.142;2023-11-21T08:42:15;5.65;;;2.08;;
12308;SDS011;6217;48.150;17.142;2023-11-21T08:46:21;5.43;;;1.85;;
12308;SDS011;6217;48.150;17.142;2023-11-21T08:50:28;8.32;;;2.30;;
12308;SDS011;6217;48.150;17.142;2023-11-21T08:54:34;5.95;;;1.25;;
12308;SDS011;6217;48.150;17.142;2023-11-21T08:58:40;5.80;;;1.50;;
12308;SDS011;6217;48.150;17.142;2023-11-21T09:02:46;3.22;;;1.65;;
12308;SDS011;6217;48.150;17.142;2023-11-21T09:06:52;4.68;;;1.70;;
12308;SDS011;6217;48.150;17.142;2023-11-21T09:10:58;5.53;;;1.75;;
12308;SDS011;6217;48.150;17.142;2023-11-21T09:15:05;8.38;;;1.98;;
12308;SDS011;6217;48.150;17.142;2023-11-21T09:19:12;3.53;;;1.20;;
12308;SDS011;6217;48.150;17.142;2023-11-21T09:23:19;1.95;;;1.05;;
12308;SDS011;6217;48.150;17.142;2023-11-21T09:27:25;5.25;;;1.10;;
12308;SDS011;6217;48.150;17.142;2023-11-21T09:31:31;5.13;;;1.40;;
12308;SDS011;6217;48.150;17.142;2023-11-21T09:35:38;5.43;;;1.15;;
12308;SDS011;6217;48.150;17.142;2023-11-21T09:39:44;3.10;;;1.00;;
12308;SDS011;6217;48.150;17.142;2023-11-21T09:43:53;4.10;;;1.13;;
12308;SDS011;6217;48.150;17.142;2023-11-21T09:48:04;3.85;;;1.50;;
12308;SDS011;6217;48.150;17.142;2023-11-21T09:52:11;2.70;;;1.10;;
12308;SDS011;6217;48.150;17.142;2023-11-21T09:56:27;3.75;;;1.10;;
12308;SDS011;6217;48.150;17.142;2023-11-21T10:00:35;2.35;;;1.10;;
12308;SDS011;6217;48.150;17.142;2023-11-21T10:04:41;6.45;;;1.35;;
12308;SDS011;6217;48.150;17.142;2023-11-21T10:08:47;2.45;;;1.02;;
12308;SDS011;6217;48.150;17.142;2023-11-21T10:12:56;7.60;;;1.67;;
12308;SDS011;6217;48.150;17.142;2023-11-21T10:17:02;2.78;;;1.20;;
12308;SDS011;6217;48.150;17.142;2023-11-21T10:21:10;3.60;;;1.15;;
12308;SDS011;6217;48.150;17.142;2023-11-21T10:25:16;10.43;;;1.40;;
12308;SDS011;6217;48.150;17.142;2023-11-21T10:29:28;6.88;;;1.30;;
12308;SDS011;6217;48.150;17.142;2023-11-21T10:33:35;4.40;;;1.20;;
12308;SDS011;6217;48.150;17.142;2023-11-21T10:37:41;7.07;;;2.60;;
12308;SDS011;6217;48.150;17.142;2023-11-21T10:41:50;5.57;;;1.55;;
12308;SDS011;6217;48.150;17.142;2023-11-21T10:45:57;2.65;;;1.40;;
12308;SDS011;6217;48.150;17.142;2023-11-21T10:50:07;5.55;;;1.30;;
12308;SDS011;6217;48.150;17.142;2023-11-21T10:54:22;4.35;;;1.92;;
12308;SDS011;6217;48.150;17.142;2023-11-21T10:58:30;4.20;;;1.52;;
12308;SDS011;6217;48.150;17.142;2023-11-21T11:02:37;5.57;;;1.70;;
12308;SDS011;6217;48.150;17.142;2023-11-21T11:06:44;8.77;;;1.27;;
12308;SDS011;6217;48.150;17.142;2023-11-21T11:11:00;3.55;;;0.80;;
12308;SDS011;6217;48.150;17.142;2023-11-21T11:15:07;3.10;;;0.73;;
12308;SDS011;6217;48.150;17.142;2023-11-21T11:19:16;1.10;;;0.70;;
12308;SDS011;6217;48.150;17.142;2023-11-21T11:36:53;1.52;;;0.70;;
12308;SDS011;6217;48.150;17.142;2023-11-21T11:41:08;2.28;;;0.40;;
12308;SDS011;6217;48.150;17.142;2023-11-21T11:45:17;0.68;;;0.50;;
12308;SDS011;6217;48.150;17.142;2023-11-21T11:49:24;2.33;;;0.70;;
12308;SDS011;6217;48.150;17.142;2023-11-21T11:53:35;4.10;;;0.95;;
12308;SDS011;6217;48.150;17.142;2023-11-21T11:57:45;0.45;;;0.30;;
12308;SDS011;6217;48.150;17.142;2023-11-21T12:01:52;2.05;;;0.70;;
12308;SDS011;6217;48.150;17.142;2023-11-21T12:05:58;2.58;;;0.90;;
12308;SDS011;6217;48.150;17.142;2023-11-21T12:10:06;1.30;;;0.60;;
12308;SDS011;6217;48.150;17.142;2023-11-21T12:14:12;2.20;;;1.35;;
12308;SDS011;6217;48.150;17.142;2023-11-21T12:18:19;1.25;;;0.60;;
12308;SDS011;6217;48.150;17.142;2023-11-21T12:22:26;2.63;;;0.90;;
12308;SDS011;6217;48.150;17.142;2023-11-21T12:26:32;1.92;;;0.60;;
12308;SDS011;6217;48.150;17.142;2023-11-21T12:30:38;2.67;;;0.75;;
12308;SDS011;6217;48.150;17.142;2023-11-21T12:34:45;1.67;;;0.75;;
12308;SDS011;6217;48.150;17.142;2023-11-21T12:38:51;2.13;;;0.60;;
12308;SDS011;6217;48.150;17.142;2023-11-21T12:42:57;3.28;;;1.45;;
12308;SDS011;6217;48.150;17.142;2023-11-21T12:47:06;1.23;;;1.10;;
12308;SDS011;6217;48.150;17.142;2023-11-21T12:51:13;3.35;;;0.65;;
12308;SDS011;6217;48.150;17.142;2023-11-21T12:55:23;1.67;;;0.80;;
12308;SDS011;6217;48.150;17.142;2023-11-21T12:59:31;3.50;;;1.00;;
12308;SDS011;6217;48.150;17.142;2023-11-21T13:03:40;3.80;;;1.30;;
12308;SDS011;6217;48.150;17.142;2023-11-21T13:07:50;1.15;;;0.80;;
12308;SDS011;6217;48.150;17.142;2023-11-21T13:12:00;2.47;;;0.82;;
12308;SDS011;6217;48.150;17.142;2023-11-21T13:16:08;2.88;;;1.10;;
12308;SDS011;6217;48.150;17.142;2023-11-21T13:20:15;3.00;;;0.90;;
12308;SDS011;6217;48.150;17.142;2023-11-21T13:24:21;10.95;;;6.47;;
12308;SDS011;6217;48.150;17.142;2023-11-21T13:28:27;6.78;;;1.38;;
12308;SDS011;6217;48.150;17.142;2023-11-21T13:32:37;2.33;;;1.10;;
12308;SDS011;6217;48.150;17.142;2023-11-21T13:36:43;4.75;;;1.52;;
12308;SDS011;6217;48.150;17.142;2023-11-21T13:40:51;2.92;;;1.10;;
12308;SDS011;6217;48.150;17.142;2023-11-21T13:44:58;4.53;;;1.58;;
12308;SDS011;6217;48.150;17.142;2023-11-21T13:49:04;1.95;;;0.95;;
12308;SDS011;6217;48.150;17.142;2023-11-21T13:53:15;2.83;;;1.25;;
12308;SDS011;6217;48.150;17.142;2023-11-21T13:57:27;6.60;;;1.45;;
12308;SDS011;6217;48.150;17.142;2023-11-21T14:01:34;3.05;;;1.75;;
12308;SDS011;6217;48.150;17.142;2023-11-21T14:05:59;5.10;;;1.60;;
12308;SDS011;6217;48.150;17.142;2023-11-21T14:10:12;5.50;;;1.63;;
12308;SDS011;6217;48.150;17.142;2023-11-21T14:14:20;5.75;;;2.13;;
12308;SDS011;6217;48.150;17.142;2023-11-21T14:18:27;6.00;;;2.13;;
12308;SDS011;6217;48.150;17.142;2023-11-21T14:22:43;7.28;;;1.75;;
12308;SDS011;6217;48.150;17.142;2023-11-21T14:26:49;4.93;;;1.30;;
12308;SDS011;6217;48.150;17.142;2023-11-21T14:30:56;5.00;;;1.52;;
12308;SDS011;6217;48.150;17.142;2023-11-21T14:35:02;5.05;;;1.45;;
12308;SDS011;6217;48.150;17.142;2023-11-21T14:39:08;4.38;;;1.38;;
12308;SDS011;6217;48.150;17.142;2023-11-21T14:43:25;3.55;;;1.70;;
12308;SDS011;6217;48.150;17.142;2023-11-21T14:47:34;3.40;;;1.40;;
12308;SDS011;6217;48.150;17.142;2023-11-21T14:51:43;4.22;;;1.90;;
12308;SDS011;6217;48.150;17.142;2023-11-21T14:56:06;4.53;;;1.48;;
12308;SDS011;6217;48.150;17.142;2023-11-21T15:00:13;5.20;;;1.58;;
12308;SDS011;6217;48.150;17.142;2023-11-21T15:04:38;5.15;;;3.35;;
12308;SDS011;6217;48.150;17.142;2023-11-21T15:08:48;2.60;;;1.73;;
12308;SDS011;6217;48.150;17.142;2023-11-21T15:13:16;6.15;;;1.98;;
12308;SDS011;6217;48.150;17.142;2023-11-21T15:17:22;7.40;;;2.60;;
12308;SDS011;6217;48.150;17.142;2023-11-21T15:21:31;5.13;;;2.15;;
12308;SDS011;6217;48.150;17.142;2023-11-21T15:25:38;8.63;;;2.03;;
12308;SDS011;6217;48.150;17.142;2023-11-21T15:29:44;6.60;;;2.05;;
12308;SDS011;6217;48.150;17.142;2023-11-21T15:33:51;5.20;;;1.63;;
12308;SDS011;6217;48.150;17.142;2023-11-21T15:37:58;6.60;;;1.95;;
12308;SDS011;6217;48.150;17.142;2023-11-21T15:42:04;13.00;;;2.72;;
12308;SDS011;6217;48.150;17.142;2023-11-21T15:46:12;7.32;;;2.35;;
12308;SDS011;6217;48.150;17.142;2023-11-21T15:50:18;7.00;;;2.10;;
12308;SDS011;6217;48.150;17.142;2023-11-21T15:54:24;6.25;;;2.15;;
12308;SDS011;6217;48.150;17.142;2023-11-21T15:58:32;3.97;;;2.92;;
12308;SDS011;6217;48.150;17.142;2023-11-21T16:02:37;3.65;;;2.05;;
12308;SDS011;6217;48.150;17.142;2023-11-21T16:06:43;6.57;;;1.88;;
12308;SDS011;6217;48.150;17.142;2023-11-21T16:10:51;3.35;;;1.38;;
12308;SDS011;6217;48.150;17.142;2023-11-21T16:14:56;5.55;;;1.67;;
12308;SDS011;6217;48.150;17.142;2023-11-21T16:19:03;3.10;;;1.30;;
12308;SDS011;6217;48.150;17.142;2023-11-21T16:23:08;4.78;;;1.80;;
12308;SDS011;6217;48.150;17.142;2023-11-21T16:27:14;8.68;;;1.60;;
12308;SDS011;6217;48.150;17.142;2023-11-21T16:31:22;5.07;;;2.20;;
12308;SDS011;6217;48.150;17.142;2023-11-21T16:35:29;4.90;;;2.00;;
12308;SDS011;6217;48.150;17.142;2023-11-21T16:39:35;7.05;;;1.63;;
12308;SDS011;6217;48.150;17.142;2023-11-21T16:43:41;4.97;;;1.83;;
12308;SDS011;6217;48.150;17.142;2023-11-21T16:47:47;5.30;;;1.60;;
12308;SDS011;6217;48.150;17.142;2023-11-21T16:51:54;8.43;;;1.85;;
12308;SDS011;6217;48.150;17.142;2023-11-21T16:56:00;2.72;;;1.85;;
12308;SDS011;6217;48.150;17.142;2023-11-21T17:00:06;3.30;;;2.53;;
12308;SDS011;6217;48.150;17.142;2023-11-21T17:04:13;4.63;;;2.47;;
12308;SDS011;6217;48.150;17.142;2023-11-21T17:08:20;5.68;;;2.78;;
12308;SDS011;6217;48.150;17.142;2023-11-21T17:12:26;4.25;;;1.88;;
12308;SDS011;6217;48.150;17.142;2023-11-21T17:16:32;5.90;;;2.22;;
12308;SDS011;6217;48.150;17.142;2023-11-21T17:20:38;8.15;;;1.98;;
12308;SDS011;6217;48.150;17.142;2023-11-21T17:24:44;8.30;;;3.78;;
12308;SDS011;6217;48.150;17.142;2023-11-21T17:28:50;8.68;;;3.53;;
12308;SDS011;6217;48.150;17.142;2023-11-21T17:32:57;7.00;;;2.80;;
12308;SDS011;6217;48.150;17.142;2023-11-21T17:37:03;5.13;;;2.55;;
12308;SDS011;6217;48.150;17.142;2023-11-21T17:41:10;8.13;;;2.67;;
12308;SDS011;6217;48.150;17.142;2023-11-21T17:45:17;10.15;;;3.20;;
12308;SDS011;6217;48.150;17.142;2023-11-21T17:49:23;4.30;;;1.98;;
12308;SDS011;6217;48.150;17.142;2023-11-21T17:53:29;3.35;;;2.00;;
12308;SDS011;6217;48.150;17.142;2023-11-21T17:57:35;6.00;;;1.88;;
12308;SDS011;6217;48.150;17.142;2023-11-21T18:01:41;3.83;;;1.98;;
12308;SDS011;6217;48.150;17.142;2023-11-21T18:05:47;3.42;;;1.55;;
12308;SDS011;6217;48.150;17.142;2023-11-21T18:09:53;3.17;;;1.75;;
12308;SDS011;6217;48.150;17.142;2023-11-21T18:13:59;3.72;;;1.88;;
12308;SDS011;6217;48.150;17.142;2023-11-21T18:18:05;4.30;;;1.90;;
12308;SDS011;6217;48.150;17.142;2023-11-21T18:22:11;3.55;;;1.92;;
12308;SDS011;6217;48.150;17.142;2023-11-21T18:26:17;3.45;;;1.90;;
12308;SDS011;6217;48.150;17.142;2023-11-21T18:30:23;3.40;;;2.30;;
12308;SDS011;6217;48.150;17.142;2023-11-21T18:34:29;6.18;;;2.25;;
12308;SDS011;6217;48.150;17.142;2023-11-21T18:38:35;3.65;;;2.22;;
12308;SDS011;6217;48.150;17.142;2023-11-21T18:42:43;4.55;;;3.47;;
12308;SDS011;6217;48.150;17.142;2023-11-21T18:46:49;6.40;;;4.05;;
12308;SDS011;6217;48.150;17.142;2023-11-21T18:50:55;8.98;;;3.17;;
12308;SDS011;6217;48.150;17.142;2023-11-21T18:55:01;6.50;;;3.60;;
12308;SDS011;6217;48.150;17.142;2023-11-21T18:59:10;9.60;;;4.45;;
12308;SDS011;6217;48.150;17.142;2023-11-21T19:03:17;6.60;;;3.55;;
12308;SDS011;6217;48.150;17.142;2023-11-21T19:07:23;10.55;;;5.45;;
12308;SDS011;6217;48.150;17.142;2023-11-21T19:11:28;4.15;;;3.25;;
12308;SDS011;6217;48.150;17.142;2023-11-21T19:15:34;7.65;;;4.00;;
12308;SDS011;6217;48.150;17.142;2023-11-21T19:19:40;6.10;;;2.95;;
12308;SDS011;6217;48.150;17.142;2023-11-21T19:23:46;5.13;;;3.13;;
12308;SDS011;6217;48.150;17.142;2023-11-21T19:27:53;5.25;;;2.80;;
12308;SDS011;6217;48.150;17.142;2023-11-21T19:31:59;4.53;;;2.72;;
12308;SDS011;6217;48.150;17.142;2023-11-21T19:36:05;5.70;;;3.08;;
12308;SDS011;6217;48.150;17.142;2023-11-21T19:40:11;4.45;;;3.28;;
12308;SDS011;6217;48.150;17.142;2023-11-21T19:44:18;4.88;;;3.47;;
12308;SDS011;6217;48.150;17.142;2023-11-21T19:48:24;5.55;;;3.80;;
12308;SDS011;6217;48.150;17.142;2023-11-21T19:52:31;5.63;;;3.58;;
12308;SDS011;6217;48.150;17.142;2023-11-21T19:56:37;8.38;;;3.10;;
12308;SDS011;6217;48.150;17.142;2023-11-21T20:00:44;5.28;;;3.22;;
12308;SDS011;6217;48.150;17.142;2023-11-21T20:04:51;4.45;;;3.42;;
12308;SDS011;6217;48.150;17.142;2023-11-21T20:08:58;5.07;;;3.72;;
12308;SDS011;6217;48.150;17.142;2023-11-21T20:13:06;6.63;;;4.00;;
12308;SDS011;6217;48.150;17.142;2023-11-21T20:17:12;6.32;;;4.35;;
12308;SDS011;6217;48.150;17.142;2023-11-21T20:21:19;5.25;;;3.53;;
12308;SDS011;6217;48.150;17.142;2023-11-21T20:25:27;5.43;;;3.38;;
12308;SDS011;6217;48.150;17.142;2023-11-21T20:29:33;5.15;;;3.30;;
12308;SDS011;6217;48.150;17.142;2023-11-21T20:33:39;9.18;;;4.68;;
12308;SDS011;6217;48.150;17.142;2023-11-21T20:37:48;4.50;;;3.55;;
12308;SDS011;6217;48.150;17.142;2023-11-21T20:41:55;9.75;;;4.82;;
12308;SDS011;6217;48.150;17.142;2023-11-21T20:46:01;5.22;;;3.95;;
12308;SDS011;6217;48.150;17.142;2023-11-21T20:50:07;8.50;;;4.32;;
12308;SDS011;6217;48.150;17.142;2023-11-21T20:54:14;4.72;;;4.20;;
12308;SDS011;6217;48.150;17.142;2023-11-21T20:58:20;6.75;;;4.32;;
12308;SDS011;6217;48.150;17.142;2023-11-21T21:02:27;4.43;;;3.92;;
12308;SDS011;6217;48.150;17.142;2023-11-21T21:06:33;5.78;;;3.97;;
12308;SDS011;6217;48.150;17.142;2023-11-21T21:10:39;8.00;;;4.35;;
12308;SDS011;6217;48.150;17.142;2023-11-21T21:14:46;6.30;;;4.30;;
12308;SDS011;6217;48.150;17.142;2023-11-21T21:18:52;7.68;;;5.35;;
12308;SDS011;6217;48.150;17.142;2023-11-21T21:23:01;9.63;;;5.35;;
12308;SDS011;6217;48.150;17.142;2023-11-21T21:27:07;6.30;;;5.35;;
12308;SDS011;6217;48.150;17.142;2023-11-21T21:31:13;7.95;;;4.57;;
12308;SDS011;6217;48.150;17.142;2023-11-21T21:35:20;7.00;;;4.60;;
12308;SDS011;6217;48.150;17.142;2023-11-21T21:39:26;9.98;;;5.15;;
12308;SDS011;6217;48.150;17.142;2023-11-21T21:43:33;7.40;;;5.00;;
12308;SDS011;6217;48.150;17.142;2023-11-21T21:47:38;8.57;;;5.63;;
12308;SDS011;6217;48.150;17.142;2023-11-21T21:51:44;6.85;;;4.95;;
12308;SDS011;6217;48.150;17.142;2023-11-21T21:55:50;16.27;;;5.03;;
12308;SDS011;6217;48.150;17.142;2023-11-21T21:59:56;12.43;;;6.22;;
12308;SDS011;6217;48.150;17.142;2023-11-21T22:04:03;9.52;;;5.80;;
12308;SDS011;6217;48.150;17.142;2023-11-21T22:08:11;8.05;;;6.60;;
12308;SDS011;6217;48.150;17.142;2023-11-21T22:12:19;7.38;;;5.95;;
12308;SDS011;6217;48.150;17.142;2023-11-21T22:16:25;11.57;;;7.03;;
12308;SDS011;6217;48.150;17.142;2023-11-21T22:20:33;8.05;;;6.32;;
12308;SDS011;6217;48.150;17.142;2023-11-21T22:24:40;9.43;;;7.57;;
12308;SDS011;6217;48.150;17.142;2023-11-21T22:28:46;12.02;;;6.45;;
12308;SDS011;6217;48.150;17.142;2023-11-21T22:32:52;11.32;;;7.68;;
12308;SDS011;6217;48.150;17.142;2023-11-21T22:37:03;11.50;;;7.07;;
12308;SDS011;6217;48.150;17.142;2023-11-21T22:41:09;10.35;;;6.65;;
12308;SDS011;6217;48.150;17.142;2023-11-21T22:45:15;12.70;;;7.53;;
12308;SDS011;6217;48.150;17.142;2023-11-21T22:49:21;9.65;;;6.40;;
12308;SDS011;6217;48.150;17.142;2023-11-21T22:53:27;12.00;;;7.13;;
12308;SDS011;6217;48.150;17.142;2023-11-21T22:57:33;10.27;;;7.15;;
12308;SDS011;6217;48.150;17.142;2023-11-21T23:01:40;9.27;;;7.30;;
12308;SDS011;6217;48.150;17.142;2023-11-21T23:05:46;11.05;;;7.22;;
12308;SDS011;6217;48.150;17.142;2023-11-21T23:09:51;10.98;;;8.45;;
12308;SDS011;6217;48.150;17.142;2023-11-21T23:13:57;11.15;;;7.90;;
12308;SDS011;6217;48.150;17.142;2023-11-21T23:18:03;13.38;;;8.07;;
12308;SDS011;6217;48.150;17.142;2023-11-21T23:22:10;11.80;;;8.10;;
12308;SDS011;6217;48.150;17.142;2023-11-21T23:26:16;11.95;;;8.15;;
12308;SDS011;6217;48.150;17.142;2023-11-21T23:30:22;11.90;;;8.73;;
12308;SDS011;6217;48.150;17.142;2023-11-21T23:34:29;12.15;;;7.97;;
12308;SDS011;6217;48.150;17.142;2023-11-21T23:38:35;15.07;;;9.35;;
12308;SDS011;6217;48.150;17.142;2023-11-21T23:42:41;14.55;;;8.10;;
12308;SDS011;6217;48.150;17.142;2023-11-21T23:46:47;12.48;;;8.50;;
12308;SDS011;6217;48.150;17.142;2023-11-21T23:50:53;12.75;;;7.80;;
12308;SDS011;6217;48.150;17.142;2023-11-21T23:54:59;16.27;;;8.57;;
12308;SDS011;6217;48.150;17.142;2023-11-21T23:59:05;12.82;;;9.25;;
